sensor_id;sensor_type;location;lat;lon;timestamp;temperature;humidity
22430;DHT22;11382;48.086;11.632;2022-12-18T00:01:53;-4.20;99.90
22430;DHT22;11382;48.086;11.632;2022-12-18T00:04:23;-4.20;99.90
22430;DHT22;11382;48.086;11.632;2022-12-18T00:06:52;-4.20;99.90
22430;DHT22;11382;48.086;11.632;2022-12-18T00:09:20;-4.20;99.90
22430;DHT22;11382;48.086;11.632;2022-12-18T00:11:51;-4.10;99.90
22430;DHT22;11382;48.086;11.632;2022-12-18T00:14:19;-4.10;99.90
22430;DHT22;11382;48.086;11.632;2022-12-18T00:16:47;-4.10;99.90
22430;DHT22;11382;48.086;11.632;2022-12-18T00:19:16;-4.10;99.90
22430;DHT22;11382;48.086;11.632;2022-12-18T00:21:45;-4.10;99.90
22430;DHT22;11382;48.086;11.632;2022-12-18T00:24:13;-4.10;99.90
22430;DHT22;11382;48.086;11.632;2022-12-18T00:26:42;-4.10;99.90
22430;DHT22;11382;48.086;11.632;2022-12-18T00:29:13;-4.10;99.90
22430;DHT22;11382;48.086;11.632;2022-12-18T00:31:43;-4.20;99.90
22430;DHT22;11382;48.086;11.632;2022-12-18T00:34:11;-4.20;99.90
22430;DHT22;11382;48.086;11.632;2022-12-18T00:36:40;-4.10;99.90
22430;DHT22;11382;48.086;11.632;2022-12-18T00:39:09;-4.20;99.90
22430;DHT22;11382;48.086;11.632;2022-12-18T00:41:38;-4.10;99.90
22430;DHT22;11382;48.086;11.632;2022-12-18T00:44:26;-4.30;99.90
22430;DHT22;11382;48.086;11.632;2022-12-18T00:46:54;-4.30;99.90
22430;DHT22;11382;48.086;11.632;2022-12-18T00:49:22;-4.30;99.90
22430;DHT22;11382;48.086;11.632;2022-12-18T00:51:50;-4.20;99.90
22430;DHT22;11382;48.086;11.632;2022-12-18T00:54:18;-4.30;99.90
22430;DHT22;11382;48.086;11.632;2022-12-18T00:56:46;-4.30;99.90
22430;DHT22;11382;48.086;11.632;2022-12-18T00:59:17;-4.30;99.90
22430;DHT22;11382;48.086;11.632;2022-12-18T01:01:46;-4.40;99.90
22430;DHT22;11382;48.086;11.632;2022-12-18T01:04:15;-4.40;99.90
22430;DHT22;11382;48.086;11.632;2022-12-18T01:06:44;-4.40;99.90
22430;DHT22;11382;48.086;11.632;2022-12-18T01:09:13;-4.40;99.90
22430;DHT22;11382;48.086;11.632;2022-12-18T01:11:41;-4.40;99.90
22430;DHT22;11382;48.086;11.632;2022-12-18T01:14:10;-4.40;99.90
22430;DHT22;11382;48.086;11.632;2022-12-18T01:16:38;-4.50;99.90
22430;DHT22;11382;48.086;11.632;2022-12-18T01:19:07;-4.40;99.90
22430;DHT22;11382;48.086;11.632;2022-12-18T01:21:35;-4.30;99.90
22430;DHT22;11382;48.086;11.632;2022-12-18T01:24:04;-4.30;99.90
22430;DHT22;11382;48.086;11.632;2022-12-18T01:26:33;-4.40;99.90
22430;DHT22;11382;48.086;11.632;2022-12-18T01:29:01;-4.40;99.90
22430;DHT22;11382;48.086;11.632;2022-12-18T01:31:30;-4.40;99.90
22430;DHT22;11382;48.086;11.632;2022-12-18T01:34:02;-4.20;99.90
22430;DHT22;11382;48.086;11.632;2022-12-18T01:36:32;-4.10;99.90
22430;DHT22;11382;48.086;11.632;2022-12-18T01:39:02;-4.10;99.90
22430;DHT22;11382;48.086;11.632;2022-12-18T01:41:32;-4.20;99.90
22430;DHT22;11382;48.086;11.632;2022-12-18T01:44:51;-4.20;99.90
22430;DHT22;11382;48.086;11.632;2022-12-18T01:47:24;-4.30;99.90
22430;DHT22;11382;48.086;11.632;2022-12-18T01:49:53;-4.30;99.90
22430;DHT22;11382;48.086;11.632;2022-12-18T01:52:24;-4.30;99.90
22430;DHT22;11382;48.086;11.632;2022-12-18T01:54:54;-4.30;99.90
22430;DHT22;11382;48.086;11.632;2022-12-18T01:57:25;-4.30;99.90
22430;DHT22;11382;48.086;11.632;2022-12-18T01:59:58;-4.30;99.90
22430;DHT22;11382;48.086;11.632;2022-12-18T02:02:39;-4.30;99.90
22430;DHT22;11382;48.086;11.632;2022-12-18T02:05:08;-4.40;99.90
22430;DHT22;11382;48.086;11.632;2022-12-18T02:07:48;-4.40;99.90
22430;DHT22;11382;48.086;11.632;2022-12-18T02:10:24;-4.50;99.90
22430;DHT22;11382;48.086;11.632;2022-12-18T02:12:58;-4.50;99.90
22430;DHT22;11382;48.086;11.632;2022-12-18T02:15:34;-4.50;99.90
22430;DHT22;11382;48.086;11.632;2022-12-18T02:18:07;-4.50;99.90
22430;DHT22;11382;48.086;11.632;2022-12-18T02:20:40;-4.50;99.90
22430;DHT22;11382;48.086;11.632;2022-12-18T02:24:29;-4.40;99.90
22430;DHT22;11382;48.086;11.632;2022-12-18T02:27:05;-4.40;99.90
22430;DHT22;11382;48.086;11.632;2022-12-18T02:29:38;-4.40;99.90
22430;DHT22;11382;48.086;11.632;2022-12-18T02:32:10;-4.30;99.90
22430;DHT22;11382;48.086;11.632;2022-12-18T02:34:44;-4.30;99.90
22430;DHT22;11382;48.086;11.632;2022-12-18T02:37:18;-4.40;99.90
22430;DHT22;11382;48.086;11.632;2022-12-18T02:39:57;-4.50;99.90
22430;DHT22;11382;48.086;11.632;2022-12-18T02:42:41;-4.40;99.90
22430;DHT22;11382;48.086;11.632;2022-12-18T02:45:12;-4.40;99.90
22430;DHT22;11382;48.086;11.632;2022-12-18T02:47:43;-4.50;99.90
22430;DHT22;11382;48.086;11.632;2022-12-18T02:50:22;-4.50;99.90
22430;DHT22;11382;48.086;11.632;2022-12-18T02:53:14;-4.50;99.90
22430;DHT22;11382;48.086;11.632;2022-12-18T02:56:07;-4.40;99.90
22430;DHT22;11382;48.086;11.632;2022-12-18T02:58:59;-4.20;99.90
22430;DHT22;11382;48.086;11.632;2022-12-18T03:01:55;-4.40;99.90
22430;DHT22;11382;48.086;11.632;2022-12-18T03:04:32;-4.20;99.90
22430;DHT22;11382;48.086;11.632;2022-12-18T03:07:11;-4.30;99.90
22430;DHT22;11382;48.086;11.632;2022-12-18T03:09:46;-4.40;99.90
22430;DHT22;11382;48.086;11.632;2022-12-18T03:12:18;-4.30;99.90
22430;DHT22;11382;48.086;11.632;2022-12-18T03:15:03;-4.30;99.90
22430;DHT22;11382;48.086;11.632;2022-12-18T03:17:33;-4.40;99.90
22430;DHT22;11382;48.086;11.632;2022-12-18T03:20:10;-4.40;99.90
22430;DHT22;11382;48.086;11.632;2022-12-18T03:22:43;-4.30;99.90
22430;DHT22;11382;48.086;11.632;2022-12-18T03:25:15;-4.20;99.90
22430;DHT22;11382;48.086;11.632;2022-12-18T03:27:48;-4.20;99.90
22430;DHT22;11382;48.086;11.632;2022-12-18T03:30:31;-4.10;99.90
22430;DHT22;11382;48.086;11.632;2022-12-18T03:33:08;-4.20;99.90
22430;DHT22;11382;48.086;11.632;2022-12-18T03:35:44;-4.30;99.90
22430;DHT22;11382;48.086;11.632;2022-12-18T03:38:16;-4.40;99.90
22430;DHT22;11382;48.086;11.632;2022-12-18T03:40:56;-4.40;99.90
22430;DHT22;11382;48.086;11.632;2022-12-18T03:43:35;-4.40;99.90
22430;DHT22;11382;48.086;11.632;2022-12-18T03:46:14;-4.40;99.90
22430;DHT22;11382;48.086;11.632;2022-12-18T03:48:46;-4.30;99.90
22430;DHT22;11382;48.086;11.632;2022-12-18T03:51:24;-4.20;99.90
22430;DHT22;11382;48.086;11.632;2022-12-18T03:54:09;-4.10;99.90
22430;DHT22;11382;48.086;11.632;2022-12-18T03:56:50;-4.10;99.90
22430;DHT22;11382;48.086;11.632;2022-12-18T03:59:29;-4.20;99.90
22430;DHT22;11382;48.086;11.632;2022-12-18T04:02:07;-4.10;99.90
22430;DHT22;11382;48.086;11.632;2022-12-18T04:04:51;-4.20;99.90
22430;DHT22;11382;48.086;11.632;2022-12-18T04:07:34;-4.30;99.90
22430;DHT22;11382;48.086;11.632;2022-12-18T04:10:10;-4.30;99.90
22430;DHT22;11382;48.086;11.632;2022-12-18T04:12:42;-4.20;99.90
22430;DHT22;11382;48.086;11.632;2022-12-18T04:15:16;-4.20;99.90
22430;DHT22;11382;48.086;11.632;2022-12-18T04:17:49;-4.10;99.90
22430;DHT22;11382;48.086;11.632;2022-12-18T04:20:23;-4.20;99.90
22430;DHT22;11382;48.086;11.632;2022-12-18T04:22:58;-4.10;99.90
22430;DHT22;11382;48.086;11.632;2022-12-18T04:25:27;-4.10;99.90
22430;DHT22;11382;48.086;11.632;2022-12-18T04:28:05;-4.20;99.90
22430;DHT22;11382;48.086;11.632;2022-12-18T04:30:35;-4.20;99.90
22430;DHT22;11382;48.086;11.632;2022-12-18T04:33:12;-4.20;99.90
22430;DHT22;11382;48.086;11.632;2022-12-18T04:35:42;-4.30;99.90
22430;DHT22;11382;48.086;11.632;2022-12-18T04:38:17;-4.20;99.90
22430;DHT22;11382;48.086;11.632;2022-12-18T04:40:54;-4.10;99.90
22430;DHT22;11382;48.086;11.632;2022-12-18T04:43:27;-4.30;99.90
22430;DHT22;11382;48.086;11.632;2022-12-18T04:46:09;-4.30;99.90
22430;DHT22;11382;48.086;11.632;2022-12-18T04:48:45;-4.20;99.90
22430;DHT22;11382;48.086;11.632;2022-12-18T04:51:35;-4.30;99.90
22430;DHT22;11382;48.086;11.632;2022-12-18T04:54:04;-4.40;99.90
22430;DHT22;11382;48.086;11.632;2022-12-18T04:56:52;-4.30;99.90
22430;DHT22;11382;48.086;11.632;2022-12-18T04:59:33;-4.20;99.90
22430;DHT22;11382;48.086;11.632;2022-12-18T05:02:03;-4.10;99.90
22430;DHT22;11382;48.086;11.632;2022-12-18T05:04:34;-4.30;99.90
22430;DHT22;11382;48.086;11.632;2022-12-18T05:07:09;-4.30;99.90
22430;DHT22;11382;48.086;11.632;2022-12-18T05:09:41;-4.10;99.90
22430;DHT22;11382;48.086;11.632;2022-12-18T05:12:10;-4.10;99.90
22430;DHT22;11382;48.086;11.632;2022-12-18T05:14:38;-4.10;99.90
22430;DHT22;11382;48.086;11.632;2022-12-18T05:17:10;-4.00;99.90
22430;DHT22;11382;48.086;11.632;2022-12-18T05:19:51;-4.00;99.90
22430;DHT22;11382;48.086;11.632;2022-12-18T05:22:28;-4.00;99.90
22430;DHT22;11382;48.086;11.632;2022-12-18T05:24:59;-4.20;99.90
22430;DHT22;11382;48.086;11.632;2022-12-18T05:27:28;-4.10;99.90
22430;DHT22;11382;48.086;11.632;2022-12-18T05:29:57;-4.10;99.90
22430;DHT22;11382;48.086;11.632;2022-12-18T05:32:26;-4.20;99.90
22430;DHT22;11382;48.086;11.632;2022-12-18T05:34:58;-4.20;99.90
22430;DHT22;11382;48.086;11.632;2022-12-18T05:37:29;-4.20;99.90
22430;DHT22;11382;48.086;11.632;2022-12-18T05:39:57;-4.20;99.90
22430;DHT22;11382;48.086;11.632;2022-12-18T05:42:30;-4.20;99.90
22430;DHT22;11382;48.086;11.632;2022-12-18T05:45:00;-4.30;99.90
22430;DHT22;11382;48.086;11.632;2022-12-18T05:47:32;-4.40;99.90
22430;DHT22;11382;48.086;11.632;2022-12-18T05:50:08;-4.40;99.90
22430;DHT22;11382;48.086;11.632;2022-12-18T05:52:39;-4.40;99.90
22430;DHT22;11382;48.086;11.632;2022-12-18T05:55:08;-4.40;99.90
22430;DHT22;11382;48.086;11.632;2022-12-18T05:57:40;-4.30;99.90
22430;DHT22;11382;48.086;11.632;2022-12-18T06:00:11;-4.30;99.90
22430;DHT22;11382;48.086;11.632;2022-12-18T06:02:42;-4.30;99.90
22430;DHT22;11382;48.086;11.632;2022-12-18T06:05:15;-4.40;99.90
22430;DHT22;11382;48.086;11.632;2022-12-18T06:07:44;-4.30;99.90
22430;DHT22;11382;48.086;11.632;2022-12-18T06:10:15;-4.30;99.90
22430;DHT22;11382;48.086;11.632;2022-12-18T06:12:44;-4.40;99.90
22430;DHT22;11382;48.086;11.632;2022-12-18T06:15:13;-4.50;99.90
22430;DHT22;11382;48.086;11.632;2022-12-18T06:17:42;-4.50;99.90
22430;DHT22;11382;48.086;11.632;2022-12-18T06:20:12;-4.50;99.90
22430;DHT22;11382;48.086;11.632;2022-12-18T06:22:45;-4.50;99.90
22430;DHT22;11382;48.086;11.632;2022-12-18T06:25:13;-4.50;99.90
22430;DHT22;11382;48.086;11.632;2022-12-18T06:27:43;-4.60;99.90
22430;DHT22;11382;48.086;11.632;2022-12-18T06:30:15;-4.60;99.90
22430;DHT22;11382;48.086;11.632;2022-12-18T06:32:48;-4.50;99.90
22430;DHT22;11382;48.086;11.632;2022-12-18T06:35:22;-4.50;99.90
22430;DHT22;11382;48.086;11.632;2022-12-18T06:37:53;-4.30;99.90
22430;DHT22;11382;48.086;11.632;2022-12-18T06:40:23;-4.30;99.90
22430;DHT22;11382;48.086;11.632;2022-12-18T06:42:55;-4.60;99.90
22430;DHT22;11382;48.086;11.632;2022-12-18T06:45:38;-4.60;99.90
22430;DHT22;11382;48.086;11.632;2022-12-18T06:48:07;-4.60;99.90
22430;DHT22;11382;48.086;11.632;2022-12-18T06:50:35;-4.60;99.90
22430;DHT22;11382;48.086;11.632;2022-12-18T06:53:05;-4.50;99.90
22430;DHT22;11382;48.086;11.632;2022-12-18T06:55:34;-4.40;99.90
22430;DHT22;11382;48.086;11.632;2022-12-18T06:58:03;-4.40;99.90
22430;DHT22;11382;48.086;11.632;2022-12-18T07:00:32;-4.30;99.90
22430;DHT22;11382;48.086;11.632;2022-12-18T07:03:00;-4.20;99.90
22430;DHT22;11382;48.086;11.632;2022-12-18T07:05:28;-4.20;99.90
22430;DHT22;11382;48.086;11.632;2022-12-18T07:08:02;-4.20;99.90
22430;DHT22;11382;48.086;11.632;2022-12-18T07:10:32;-4.20;99.90
22430;DHT22;11382;48.086;11.632;2022-12-18T07:13:01;-4.30;99.90
22430;DHT22;11382;48.086;11.632;2022-12-18T07:15:29;-4.40;99.90
22430;DHT22;11382;48.086;11.632;2022-12-18T07:17:58;-4.40;99.90
22430;DHT22;11382;48.086;11.632;2022-12-18T07:20:27;-4.50;99.90
22430;DHT22;11382;48.086;11.632;2022-12-18T07:22:59;-4.60;99.90
22430;DHT22;11382;48.086;11.632;2022-12-18T07:25:35;-4.60;99.90
22430;DHT22;11382;48.086;11.632;2022-12-18T07:28:03;-4.60;99.90
22430;DHT22;11382;48.086;11.632;2022-12-18T07:30:31;-4.50;99.90
22430;DHT22;11382;48.086;11.632;2022-12-18T07:33:00;-4.50;99.90
22430;DHT22;11382;48.086;11.632;2022-12-18T07:35:28;-4.60;99.90
22430;DHT22;11382;48.086;11.632;2022-12-18T07:37:56;-4.60;99.90
22430;DHT22;11382;48.086;11.632;2022-12-18T07:40:25;-4.60;99.90
22430;DHT22;11382;48.086;11.632;2022-12-18T07:42:54;-4.70;99.90
22430;DHT22;11382;48.086;11.632;2022-12-18T07:45:23;-4.70;99.90
22430;DHT22;11382;48.086;11.632;2022-12-18T07:47:51;-4.80;99.90
22430;DHT22;11382;48.086;11.632;2022-12-18T07:50:19;-4.70;99.90
22430;DHT22;11382;48.086;11.632;2022-12-18T07:52:47;-4.60;99.90
22430;DHT22;11382;48.086;11.632;2022-12-18T07:55:16;-4.60;99.90
22430;DHT22;11382;48.086;11.632;2022-12-18T07:57:47;-4.60;99.90
22430;DHT22;11382;48.086;11.632;2022-12-18T08:00:23;-4.60;99.90
22430;DHT22;11382;48.086;11.632;2022-12-18T08:02:51;-4.40;99.90
22430;DHT22;11382;48.086;11.632;2022-12-18T08:05:20;-4.40;99.90
22430;DHT22;11382;48.086;11.632;2022-12-18T08:07:49;-4.50;99.90
22430;DHT22;11382;48.086;11.632;2022-12-18T08:10:17;-4.50;99.90
22430;DHT22;11382;48.086;11.632;2022-12-18T08:12:49;-4.50;99.90
22430;DHT22;11382;48.086;11.632;2022-12-18T08:15:18;-4.50;99.90
22430;DHT22;11382;48.086;11.632;2022-12-18T08:17:48;-4.50;99.90
22430;DHT22;11382;48.086;11.632;2022-12-18T08:20:16;-4.40;99.90
22430;DHT22;11382;48.086;11.632;2022-12-18T08:22:45;-4.40;99.90
22430;DHT22;11382;48.086;11.632;2022-12-18T08:25:13;-4.40;99.90
22430;DHT22;11382;48.086;11.632;2022-12-18T08:27:41;-4.40;99.90
22430;DHT22;11382;48.086;11.632;2022-12-18T08:30:12;-4.30;99.90
22430;DHT22;11382;48.086;11.632;2022-12-18T08:32:40;-4.50;99.90
22430;DHT22;11382;48.086;11.632;2022-12-18T08:35:09;-4.50;99.90
22430;DHT22;11382;48.086;11.632;2022-12-18T08:37:39;-4.30;99.90
22430;DHT22;11382;48.086;11.632;2022-12-18T08:40:09;-4.30;99.90
22430;DHT22;11382;48.086;11.632;2022-12-18T08:42:37;-4.30;99.90
22430;DHT22;11382;48.086;11.632;2022-12-18T08:45:23;-4.20;99.90
22430;DHT22;11382;48.086;11.632;2022-12-18T08:47:53;-4.30;99.90
22430;DHT22;11382;48.086;11.632;2022-12-18T08:50:22;-4.20;99.90
22430;DHT22;11382;48.086;11.632;2022-12-18T08:52:52;-4.20;99.90
22430;DHT22;11382;48.086;11.632;2022-12-18T08:55:21;-4.30;99.90
22430;DHT22;11382;48.086;11.632;2022-12-18T08:57:49;-4.30;99.90
22430;DHT22;11382;48.086;11.632;2022-12-18T09:00:17;-4.40;99.90
22430;DHT22;11382;48.086;11.632;2022-12-18T09:02:46;-4.40;99.90
22430;DHT22;11382;48.086;11.632;2022-12-18T09:05:15;-4.40;99.90
22430;DHT22;11382;48.086;11.632;2022-12-18T09:07:46;-4.50;99.90
22430;DHT22;11382;48.086;11.632;2022-12-18T09:10:14;-4.40;99.90
22430;DHT22;11382;48.086;11.632;2022-12-18T09:12:44;-4.30;99.90
22430;DHT22;11382;48.086;11.632;2022-12-18T09:15:14;-4.40;99.90
22430;DHT22;11382;48.086;11.632;2022-12-18T09:17:43;-4.50;99.90
22430;DHT22;11382;48.086;11.632;2022-12-18T09:20:14;-4.40;99.90
22430;DHT22;11382;48.086;11.632;2022-12-18T09:22:46;-4.30;99.90
22430;DHT22;11382;48.086;11.632;2022-12-18T09:25:16;-4.20;99.90
22430;DHT22;11382;48.086;11.632;2022-12-18T09:27:47;-4.20;99.90
22430;DHT22;11382;48.086;11.632;2022-12-18T09:30:16;-4.20;99.90
22430;DHT22;11382;48.086;11.632;2022-12-18T09:32:45;-4.20;99.90
22430;DHT22;11382;48.086;11.632;2022-12-18T09:35:15;-4.20;99.90
22430;DHT22;11382;48.086;11.632;2022-12-18T09:37:45;-4.20;99.90
22430;DHT22;11382;48.086;11.632;2022-12-18T09:40:15;-4.40;99.90
22430;DHT22;11382;48.086;11.632;2022-12-18T09:42:49;-4.40;99.90
22430;DHT22;11382;48.086;11.632;2022-12-18T09:45:19;-4.40;99.90
22430;DHT22;11382;48.086;11.632;2022-12-18T09:47:50;-4.40;99.90
22430;DHT22;11382;48.086;11.632;2022-12-18T09:50:27;-4.50;99.90
22430;DHT22;11382;48.086;11.632;2022-12-18T09:53:04;-4.50;99.90
22430;DHT22;11382;48.086;11.632;2022-12-18T09:55:40;-4.40;99.90
22430;DHT22;11382;48.086;11.632;2022-12-18T09:58:17;-4.50;99.90
22430;DHT22;11382;48.086;11.632;2022-12-18T10:00:47;-4.60;99.90
22430;DHT22;11382;48.086;11.632;2022-12-18T10:03:16;-4.60;99.90
22430;DHT22;11382;48.086;11.632;2022-12-18T10:05:53;-4.60;99.90
22430;DHT22;11382;48.086;11.632;2022-12-18T10:08:36;-4.60;99.90
22430;DHT22;11382;48.086;11.632;2022-12-18T10:11:27;-4.50;99.90
22430;DHT22;11382;48.086;11.632;2022-12-18T10:14:03;-4.40;99.90
22430;DHT22;11382;48.086;11.632;2022-12-18T10:16:37;-4.40;99.90
22430;DHT22;11382;48.086;11.632;2022-12-18T10:19:30;-4.40;99.90
22430;DHT22;11382;48.086;11.632;2022-12-18T10:22:10;-4.50;99.90
22430;DHT22;11382;48.086;11.632;2022-12-18T10:24:48;-4.60;99.90
22430;DHT22;11382;48.086;11.632;2022-12-18T10:27:22;-4.30;99.90
22430;DHT22;11382;48.086;11.632;2022-12-18T10:29:51;-4.30;99.90
22430;DHT22;11382;48.086;11.632;2022-12-18T10:32:23;-4.70;99.90
22430;DHT22;11382;48.086;11.632;2022-12-18T10:34:53;-4.70;99.90
22430;DHT22;11382;48.086;11.632;2022-12-18T10:37:29;-4.70;99.90
22430;DHT22;11382;48.086;11.632;2022-12-18T10:40:12;-4.60;99.90
22430;DHT22;11382;48.086;11.632;2022-12-18T10:43:03;-4.50;99.90
22430;DHT22;11382;48.086;11.632;2022-12-18T10:45:34;-4.50;99.90
22430;DHT22;11382;48.086;11.632;2022-12-18T10:48:04;-4.30;99.90
22430;DHT22;11382;48.086;11.632;2022-12-18T10:50:36;-4.20;99.90
22430;DHT22;11382;48.086;11.632;2022-12-18T10:53:27;-4.30;99.90
22430;DHT22;11382;48.086;11.632;2022-12-18T10:56:02;-4.30;99.90
22430;DHT22;11382;48.086;11.632;2022-12-18T10:58:32;-4.30;99.90
22430;DHT22;11382;48.086;11.632;2022-12-18T11:01:10;-4.40;99.90
22430;DHT22;11382;48.086;11.632;2022-12-18T11:03:41;-4.30;99.90
22430;DHT22;11382;48.086;11.632;2022-12-18T11:06:12;-4.40;99.90
22430;DHT22;11382;48.086;11.632;2022-12-18T11:08:41;-4.40;99.90
22430;DHT22;11382;48.086;11.632;2022-12-18T11:11:20;-4.40;99.90
22430;DHT22;11382;48.086;11.632;2022-12-18T11:13:58;-4.40;99.90
22430;DHT22;11382;48.086;11.632;2022-12-18T11:16:29;-4.60;99.90
22430;DHT22;11382;48.086;11.632;2022-12-18T11:19:21;-4.60;99.90
22430;DHT22;11382;48.086;11.632;2022-12-18T11:22:00;-4.50;99.90
22430;DHT22;11382;48.086;11.632;2022-12-18T11:24:32;-4.40;99.90
22430;DHT22;11382;48.086;11.632;2022-12-18T11:27:04;-4.30;99.90
22430;DHT22;11382;48.086;11.632;2022-12-18T11:29:39;-4.30;99.90
22430;DHT22;11382;48.086;11.632;2022-12-18T11:32:25;-4.30;99.90
22430;DHT22;11382;48.086;11.632;2022-12-18T11:34:59;-4.30;99.90
22430;DHT22;11382;48.086;11.632;2022-12-18T11:37:34;-4.20;99.90
22430;DHT22;11382;48.086;11.632;2022-12-18T11:40:06;-4.20;99.90
22430;DHT22;11382;48.086;11.632;2022-12-18T11:42:45;-4.30;99.90
22430;DHT22;11382;48.086;11.632;2022-12-18T11:45:27;-4.20;99.90
22430;DHT22;11382;48.086;11.632;2022-12-18T11:47:59;-4.30;99.90
22430;DHT22;11382;48.086;11.632;2022-12-18T11:50:34;-4.00;99.90
22430;DHT22;11382;48.086;11.632;2022-12-18T11:53:11;-3.90;99.90
22430;DHT22;11382;48.086;11.632;2022-12-18T11:55:43;-4.00;99.90
22430;DHT22;11382;48.086;11.632;2022-12-18T11:58:33;-4.00;99.90
22430;DHT22;11382;48.086;11.632;2022-12-18T12:01:10;-4.20;99.90
22430;DHT22;11382;48.086;11.632;2022-12-18T12:03:56;-4.20;99.90
22430;DHT22;11382;48.086;11.632;2022-12-18T12:06:32;-4.20;99.90
22430;DHT22;11382;48.086;11.632;2022-12-18T12:09:13;-4.20;99.90
22430;DHT22;11382;48.086;11.632;2022-12-18T12:11:50;-4.10;99.90
22430;DHT22;11382;48.086;11.632;2022-12-18T12:14:35;-4.10;99.90
22430;DHT22;11382;48.086;11.632;2022-12-18T12:17:21;-4.00;99.90
22430;DHT22;11382;48.086;11.632;2022-12-18T12:19:56;-4.00;99.90
22430;DHT22;11382;48.086;11.632;2022-12-18T12:22:35;-4.10;99.90
22430;DHT22;11382;48.086;11.632;2022-12-18T12:25:30;-4.10;99.90
22430;DHT22;11382;48.086;11.632;2022-12-18T12:28:15;-4.20;99.90
22430;DHT22;11382;48.086;11.632;2022-12-18T12:30:56;-4.40;99.90
22430;DHT22;11382;48.086;11.632;2022-12-18T12:33:34;-4.20;99.90
22430;DHT22;11382;48.086;11.632;2022-12-18T12:36:16;-4.00;99.90
22430;DHT22;11382;48.086;11.632;2022-12-18T12:38:56;-4.00;99.90
22430;DHT22;11382;48.086;11.632;2022-12-18T12:41:27;-4.10;99.90
22430;DHT22;11382;48.086;11.632;2022-12-18T12:44:20;-4.30;99.90
22430;DHT22;11382;48.086;11.632;2022-12-18T12:46:52;-4.40;99.90
22430;DHT22;11382;48.086;11.632;2022-12-18T12:49:29;-4.40;99.90
22430;DHT22;11382;48.086;11.632;2022-12-18T12:52:12;-4.30;99.90
22430;DHT22;11382;48.086;11.632;2022-12-18T12:54:46;-4.10;99.90
22430;DHT22;11382;48.086;11.632;2022-12-18T12:57:30;-3.90;99.90
22430;DHT22;11382;48.086;11.632;2022-12-18T13:00:07;-3.90;99.90
22430;DHT22;11382;48.086;11.632;2022-12-18T13:02:44;-4.10;99.90
22430;DHT22;11382;48.086;11.632;2022-12-18T13:05:23;-4.10;99.90
22430;DHT22;11382;48.086;11.632;2022-12-18T13:07:57;-4.20;99.90
22430;DHT22;11382;48.086;11.632;2022-12-18T13:10:32;-4.10;99.90
22430;DHT22;11382;48.086;11.632;2022-12-18T13:13:06;-4.00;99.90
22430;DHT22;11382;48.086;11.632;2022-12-18T13:15:39;-3.90;99.90
22430;DHT22;11382;48.086;11.632;2022-12-18T13:18:20;-3.80;99.90
22430;DHT22;11382;48.086;11.632;2022-12-18T13:21:12;-3.80;99.90
22430;DHT22;11382;48.086;11.632;2022-12-18T13:23:42;-3.90;99.90
22430;DHT22;11382;48.086;11.632;2022-12-18T13:26:31;-3.70;99.90
22430;DHT22;11382;48.086;11.632;2022-12-18T13:29:01;-4.00;99.90
22430;DHT22;11382;48.086;11.632;2022-12-18T13:32:18;-3.90;99.90
22430;DHT22;11382;48.086;11.632;2022-12-18T13:37:56;-3.70;99.90
22430;DHT22;11382;48.086;11.632;2022-12-18T13:40:56;-4.00;99.90
22430;DHT22;11382;48.086;11.632;2022-12-18T13:43:31;-4.00;99.90
22430;DHT22;11382;48.086;11.632;2022-12-18T13:46:23;-4.10;99.90
22430;DHT22;11382;48.086;11.632;2022-12-18T13:48:55;-4.30;99.90
22430;DHT22;11382;48.086;11.632;2022-12-18T13:51:26;-4.40;99.90
22430;DHT22;11382;48.086;11.632;2022-12-18T13:53:57;-4.40;99.90
22430;DHT22;11382;48.086;11.632;2022-12-18T13:56:28;-4.30;99.90
22430;DHT22;11382;48.086;11.632;2022-12-18T13:59:19;-4.30;99.90
22430;DHT22;11382;48.086;11.632;2022-12-18T14:01:53;-4.20;99.90
22430;DHT22;11382;48.086;11.632;2022-12-18T14:04:27;-4.40;99.90
22430;DHT22;11382;48.086;11.632;2022-12-18T14:07:02;-4.50;99.90
22430;DHT22;11382;48.086;11.632;2022-12-18T14:09:35;-4.30;99.90
22430;DHT22;11382;48.086;11.632;2022-12-18T14:12:11;-4.30;99.90
22430;DHT22;11382;48.086;11.632;2022-12-18T14:14:59;-4.00;99.90
22430;DHT22;11382;48.086;11.632;2022-12-18T14:17:27;-4.20;99.90
22430;DHT22;11382;48.086;11.632;2022-12-18T14:19:57;-4.30;99.90
22430;DHT22;11382;48.086;11.632;2022-12-18T14:22:29;-4.30;99.90
22430;DHT22;11382;48.086;11.632;2022-12-18T14:25:16;-4.40;99.90
22430;DHT22;11382;48.086;11.632;2022-12-18T14:27:48;-4.50;99.90
22430;DHT22;11382;48.086;11.632;2022-12-18T14:30:29;-4.50;99.90
22430;DHT22;11382;48.086;11.632;2022-12-18T14:33:01;-4.60;99.90
22430;DHT22;11382;48.086;11.632;2022-12-18T14:35:30;-4.50;99.90
22430;DHT22;11382;48.086;11.632;2022-12-18T14:38:20;-4.60;99.90
22430;DHT22;11382;48.086;11.632;2022-12-18T14:40:52;-4.60;99.90
22430;DHT22;11382;48.086;11.632;2022-12-18T14:43:22;-4.50;99.90
22430;DHT22;11382;48.086;11.632;2022-12-18T14:45:51;-4.60;99.90
22430;DHT22;11382;48.086;11.632;2022-12-18T14:48:21;-4.70;99.90
22430;DHT22;11382;48.086;11.632;2022-12-18T14:50:58;-4.70;99.90
22430;DHT22;11382;48.086;11.632;2022-12-18T14:53:37;-4.70;99.90
22430;DHT22;11382;48.086;11.632;2022-12-18T14:56:15;-4.60;99.90
22430;DHT22;11382;48.086;11.632;2022-12-18T14:58:51;-4.50;99.90
22430;DHT22;11382;48.086;11.632;2022-12-18T15:01:25;-4.60;99.90
22430;DHT22;11382;48.086;11.632;2022-12-18T15:03:54;-4.70;99.90
22430;DHT22;11382;48.086;11.632;2022-12-18T15:06:31;-4.70;99.90
22430;DHT22;11382;48.086;11.632;2022-12-18T15:09:03;-4.70;99.90
22430;DHT22;11382;48.086;11.632;2022-12-18T15:11:35;-4.70;99.90
22430;DHT22;11382;48.086;11.632;2022-12-18T15:14:32;-4.80;99.90
22430;DHT22;11382;48.086;11.632;2022-12-18T15:17:04;-4.80;99.90
22430;DHT22;11382;48.086;11.632;2022-12-18T15:19:39;-4.70;99.90
22430;DHT22;11382;48.086;11.632;2022-12-18T15:22:22;-4.90;99.90
22430;DHT22;11382;48.086;11.632;2022-12-18T15:24:56;-4.80;99.90
22430;DHT22;11382;48.086;11.632;2022-12-18T15:27:30;-4.80;99.90
22430;DHT22;11382;48.086;11.632;2022-12-18T15:30:18;-4.70;99.90
22430;DHT22;11382;48.086;11.632;2022-12-18T15:32:46;-4.60;99.90
22430;DHT22;11382;48.086;11.632;2022-12-18T15:35:19;-4.60;99.90
22430;DHT22;11382;48.086;11.632;2022-12-18T15:37:49;-4.60;99.90
22430;DHT22;11382;48.086;11.632;2022-12-18T15:40:23;-4.50;99.90
22430;DHT22;11382;48.086;11.632;2022-12-18T15:42:53;-4.60;99.90
22430;DHT22;11382;48.086;11.632;2022-12-18T15:45:40;-4.70;99.90
22430;DHT22;11382;48.086;11.632;2022-12-18T15:48:18;-4.70;99.90
22430;DHT22;11382;48.086;11.632;2022-12-18T15:50:47;-4.80;99.90
22430;DHT22;11382;48.086;11.632;2022-12-18T15:53:18;-4.80;99.90
22430;DHT22;11382;48.086;11.632;2022-12-18T15:55:47;-4.80;99.90
22430;DHT22;11382;48.086;11.632;2022-12-18T15:58:33;-4.70;99.90
22430;DHT22;11382;48.086;11.632;2022-12-18T16:01:03;-4.60;99.90
22430;DHT22;11382;48.086;11.632;2022-12-18T16:03:31;-4.60;99.90